sensor_id;sensor_type;location;lat;lon;timestamp;pressure;altitude;pressure_sealevel;temperature;humidity
17230;BME280;8731;50.364;8.958;2023-02-18T00:03:49;100775.47;;;11.85;95.12
17230;BME280;8731;50.364;8.958;2023-02-18T00:08:13;100777.88;;;11.84;94.62
17230;BME280;8731;50.364;8.958;2023-02-18T00:12:35;100783.53;;;11.81;94.75
17230;BME280;8731;50.364;8.958;2023-02-18T00:16:58;100786.25;;;11.83;93.98
17230;BME280;8731;50.364;8.958;2023-02-18T00:21:20;100781.88;;;11.73;93.94
17230;BME280;8731;50.364;8.958;2023-02-18T00:25:44;100786.38;;;11.76;93.57
17230;BME280;8731;50.364;8.958;2023-02-18T00:30:07;100786.22;;;11.74;93.27
17230;BME280;8731;50.364;8.958;2023-02-18T00:34:30;100786.38;;;11.76;93.22
17230;BME280;8731;50.364;8.958;2023-02-18T00:38:58;100783.09;;;11.68;93.44
17230;BME280;8731;50.364;8.958;2023-02-18T00:43:24;100771.84;;;11.66;93.42
17230;BME280;8731;50.364;8.958;2023-02-18T00:47:47;100779.19;;;11.72;93.10
17230;BME280;8731;50.364;8.958;2023-02-18T00:52:09;100780.53;;;11.68;93.12
17230;BME280;8731;50.364;8.958;2023-02-18T00:56:34;100778.16;;;11.61;93.04
17230;BME280;8731;50.364;8.958;2023-02-18T01:00:58;100780.38;;;11.66;92.74
17230;BME280;8731;50.364;8.958;2023-02-18T01:05:20;100774.38;;;11.66;92.78
17230;BME280;8731;50.364;8.958;2023-02-18T01:09:43;100769.00;;;11.63;92.77
17230;BME280;8731;50.364;8.958;2023-02-18T01:14:05;100774.25;;;11.64;92.77
17230;BME280;8731;50.364;8.958;2023-02-18T01:18:29;100772.28;;;11.62;92.28
17230;BME280;8731;50.364;8.958;2023-02-18T01:22:51;100772.72;;;11.58;93.04
17230;BME280;8731;50.364;8.958;2023-02-18T01:27:15;100766.56;;;11.56;92.70
17230;BME280;8731;50.364;8.958;2023-02-18T01:31:37;100761.47;;;11.56;92.34
17230;BME280;8731;50.364;8.958;2023-02-18T01:36:01;100754.41;;;11.53;92.42
17230;BME280;8731;50.364;8.958;2023-02-18T01:40:27;100752.94;;;11.47;92.00
17230;BME280;8731;50.364;8.958;2023-02-18T01:44:50;100747.84;;;11.47;92.07
17230;BME280;8731;50.364;8.958;2023-02-18T01:49:15;100742.44;;;11.44;92.13
17230;BME280;8731;50.364;8.958;2023-02-18T01:53:47;100746.94;;;11.46;91.96
17230;BME280;8731;50.364;8.958;2023-02-18T01:58:13;100733.44;;;11.38;92.61
17230;BME280;8731;50.364;8.958;2023-02-18T02:02:38;100732.66;;;11.31;92.35
17230;BME280;8731;50.364;8.958;2023-02-18T02:07:03;100719.03;;;11.22;92.74
17230;BME280;8731;50.364;8.958;2023-02-18T02:11:38;100717.69;;;11.17;91.96
17230;BME280;8731;50.364;8.958;2023-02-18T02:16:22;100709.13;;;11.16;92.36
17230;BME280;8731;50.364;8.958;2023-02-18T02:21:11;100705.69;;;11.16;92.14
17230;BME280;8731;50.364;8.958;2023-02-18T02:31:42;100710.47;;;11.04;92.48
17230;BME280;8731;50.364;8.958;2023-02-18T02:36:23;100718.41;;;10.98;93.65
17230;BME280;8731;50.364;8.958;2023-02-18T02:40:54;100708.47;;;10.84;94.19
17230;BME280;8731;50.364;8.958;2023-02-18T02:45:28;100716.84;;;10.83;94.55
17230;BME280;8731;50.364;8.958;2023-02-18T02:50:02;100703.06;;;10.81;95.05
17230;BME280;8731;50.364;8.958;2023-02-18T02:54:29;100712.66;;;10.75;95.76
17230;BME280;8731;50.364;8.958;2023-02-18T02:58:58;100706.22;;;10.79;96.04
17230;BME280;8731;50.364;8.958;2023-02-18T03:03:38;100712.81;;;10.76;96.25
17230;BME280;8731;50.364;8.958;2023-02-18T03:08:21;100722.09;;;10.76;96.97
17230;BME280;8731;50.364;8.958;2023-02-18T03:13:00;100712.66;;;10.75;97.63
17230;BME280;8731;50.364;8.958;2023-02-18T03:17:34;100704.41;;;10.77;97.14
17230;BME280;8731;50.364;8.958;2023-02-18T03:22:02;100703.06;;;10.72;98.23
17230;BME280;8731;50.364;8.958;2023-02-18T03:26:30;100693.19;;;10.67;98.19
17230;BME280;8731;50.364;8.958;2023-02-18T03:31:00;100705.75;;;10.74;99.02
17230;BME280;8731;50.364;8.958;2023-02-18T03:35:27;100688.84;;;10.83;98.03
17230;BME280;8731;50.364;8.958;2023-02-18T03:39:54;100688.09;;;10.84;98.41
17230;BME280;8731;50.364;8.958;2023-02-18T03:44:23;100698.91;;;10.90;97.72
17230;BME280;8731;50.364;8.958;2023-02-18T03:48:47;100689.63;;;10.91;97.51
17230;BME280;8731;50.364;8.958;2023-02-18T03:53:09;100706.13;;;10.94;97.08
17230;BME280;8731;50.364;8.958;2023-02-18T03:57:32;100697.13;;;10.98;96.97
17230;BME280;8731;50.364;8.958;2023-02-18T04:01:54;100703.88;;;10.97;97.25
17230;BME280;8731;50.364;8.958;2023-02-18T04:06:17;100697.72;;;10.95;97.84
17230;BME280;8731;50.364;8.958;2023-02-18T04:10:40;100691.13;;;10.97;97.53
17230;BME280;8731;50.364;8.958;2023-02-18T04:15:02;100688.44;;;10.96;97.26
17230;BME280;8731;50.364;8.958;2023-02-18T04:19:25;100686.31;;;11.00;97.84
17230;BME280;8731;50.364;8.958;2023-02-18T04:23:49;100678.97;;;11.03;97.23
17230;BME280;8731;50.364;8.958;2023-02-18T04:28:12;100684.22;;;11.05;97.66
17230;BME280;8731;50.364;8.958;2023-02-18T04:32:36;100674.63;;;11.02;97.84
17230;BME280;8731;50.364;8.958;2023-02-18T04:36:58;100683.03;;;11.10;96.80
17230;BME280;8731;50.364;8.958;2023-02-18T04:41:22;100681.06;;;11.07;97.28
17230;BME280;8731;50.364;8.958;2023-02-18T04:45:44;100683.91;;;11.11;96.72
17230;BME280;8731;50.364;8.958;2023-02-18T04:50:07;100675.53;;;11.12;97.60
17230;BME280;8731;50.364;8.958;2023-02-18T04:54:30;100670.44;;;11.12;97.09
17230;BME280;8731;50.364;8.958;2023-02-18T04:58:54;100670.13;;;11.08;97.21
17230;BME280;8731;50.364;8.958;2023-02-18T05:03:16;100667.13;;;11.04;98.18
17230;BME280;8731;50.364;8.958;2023-02-18T05:07:39;100653.97;;;10.99;97.87
17230;BME280;8731;50.364;8.958;2023-02-18T05:12:02;100644.94;;;11.12;98.42
17230;BME280;8731;50.364;8.958;2023-02-18T05:16:26;100646.91;;;11.05;99.09
17230;BME280;8731;50.364;8.958;2023-02-18T05:20:48;100636.84;;;11.07;100.00
17230;BME280;8731;50.364;8.958;2023-02-18T05:25:10;100631.47;;;11.04;100.00
17230;BME280;8731;50.364;8.958;2023-02-18T05:29:32;100625.94;;;10.99;100.00
17230;BME280;8731;50.364;8.958;2023-02-18T05:33:56;100613.78;;;11.05;100.00
17230;BME280;8731;50.364;8.958;2023-02-18T05:38:19;100607.06;;;10.97;100.00
17230;BME280;8731;50.364;8.958;2023-02-18T05:42:41;100598.34;;;11.04;100.00
17230;BME280;8731;50.364;8.958;2023-02-18T05:47:05;100597.75;;;10.98;100.00
17230;BME280;8731;50.364;8.958;2023-02-18T05:51:29;100592.66;;;10.98;100.00
17230;BME280;8731;50.364;8.958;2023-02-18T05:55:52;100598.66;;;10.98;100.00
17230;BME280;8731;50.364;8.958;2023-02-18T06:00:15;100596.84;;;10.97;100.00
17230;BME280;8731;50.364;8.958;2023-02-18T06:04:38;100595.97;;;10.97;100.00
17230;BME280;8731;50.364;8.958;2023-02-18T06:09:02;100595.78;;;11.04;100.00
17230;BME280;8731;50.364;8.958;2023-02-18T06:13:25;100589.81;;;11.03;100.00
17230;BME280;8731;50.364;8.958;2023-02-18T06:17:48;100595.50;;;11.01;100.00
17230;BME280;8731;50.364;8.958;2023-02-18T06:22:10;100599.69;;;11.00;100.00
17230;BME280;8731;50.364;8.958;2023-02-18T06:26:34;100591.00;;;10.98;100.00
17230;BME280;8731;50.364;8.958;2023-02-18T06:30:56;100594.63;;;10.92;100.00
17230;BME280;8731;50.364;8.958;2023-02-18T06:35:18;100593.84;;;11.01;100.00
17230;BME280;8731;50.364;8.958;2023-02-18T06:39:41;100586.38;;;10.94;100.00
17230;BME280;8731;50.364;8.958;2023-02-18T06:44:04;100575.44;;;10.95;100.00
17230;BME280;8731;50.364;8.958;2023-02-18T06:48:26;100580.69;;;10.97;100.00
17230;BME280;8731;50.364;8.958;2023-02-18T06:52:49;100570.94;;;10.93;100.00
17230;BME280;8731;50.364;8.958;2023-02-18T06:57:11;100568.25;;;10.91;100.00
17230;BME280;8731;50.364;8.958;2023-02-18T07:01:35;100559.09;;;10.93;100.00
17230;BME280;8731;50.364;8.958;2023-02-18T07:05:57;100539.16;;;10.98;100.00
17230;BME280;8731;50.364;8.958;2023-02-18T07:10:19;100550.53;;;11.01;100.00
17230;BME280;8731;50.364;8.958;2023-02-18T07:14:42;100536.44;;;11.05;100.00
17230;BME280;8731;50.364;8.958;2023-02-18T07:19:06;100530.72;;;11.07;100.00
17230;BME280;8731;50.364;8.958;2023-02-18T07:23:28;100540.50;;;11.03;100.00
17230;BME280;8731;50.364;8.958;2023-02-18T07:27:50;100537.63;;;11.08;100.00
17230;BME280;8731;50.364;8.958;2023-02-18T07:32:14;100532.53;;;11.08;100.00
17230;BME280;8731;50.364;8.958;2023-02-18T07:36:39;100533.28;;;11.07;100.00
17230;BME280;8731;50.364;8.958;2023-02-18T07:41:01;100544.84;;;11.13;100.00
17230;BME280;8731;50.364;8.958;2023-02-18T07:45:24;100539.75;;;11.13;100.00
17230;BME280;8731;50.364;8.958;2023-02-18T07:49:46;100533.72;;;11.21;99.76
17230;BME280;8731;50.364;8.958;2023-02-18T07:54:10;100540.91;;;11.25;97.96
17230;BME280;8731;50.364;8.958;2023-02-18T07:58:34;100525.03;;;11.19;95.27
17230;BME280;8731;50.364;8.958;2023-02-18T08:02:58;100531.94;;;11.20;95.27
17230;BME280;8731;50.364;8.958;2023-02-18T08:07:21;100534.94;;;11.16;94.04
17230;BME280;8731;50.364;8.958;2023-02-18T08:11:45;100549.31;;;11.24;93.08
17230;BME280;8731;50.364;8.958;2023-02-18T08:16:08;100554.41;;;11.24;92.40
17230;BME280;8731;50.364;8.958;2023-02-18T08:20:30;100564.59;;;11.24;90.90
17230;BME280;8731;50.364;8.958;2023-02-18T08:24:56;100558.03;;;11.17;89.73
17230;BME280;8731;50.364;8.958;2023-02-18T08:29:19;100578.25;;;11.16;88.29
17230;BME280;8731;50.364;8.958;2023-02-18T08:33:41;100584.25;;;11.16;89.20
17230;BME280;8731;50.364;8.958;2023-02-18T08:38:04;100585.13;;;11.25;89.22
17230;BME280;8731;50.364;8.958;2023-02-18T08:42:26;100574.94;;;11.25;87.76
17230;BME280;8731;50.364;8.958;2023-02-18T08:46:49;100587.81;;;11.27;87.41
17230;BME280;8731;50.364;8.958;2023-02-18T08:51:14;100568.19;;;11.26;86.85
17230;BME280;8731;50.364;8.958;2023-02-18T08:55:39;100567.75;;;11.21;86.12
17230;BME280;8731;50.364;8.958;2023-02-18T09:00:02;100576.41;;;11.32;85.82
17230;BME280;8731;50.364;8.958;2023-02-18T09:04:26;100569.56;;;11.22;85.76
17230;BME280;8731;50.364;8.958;2023-02-18T09:08:49;100568.78;;;11.23;84.91
17230;BME280;8731;50.364;8.958;2023-02-18T09:13:12;100576.88;;;11.28;84.51
17230;BME280;8731;50.364;8.958;2023-02-18T09:17:34;100570.59;;;11.24;83.39
17230;BME280;8731;50.364;8.958;2023-02-18T09:21:58;100557.41;;;11.20;83.20
17230;BME280;8731;50.364;8.958;2023-02-18T09:26:22;100560.69;;;11.27;83.39
17230;BME280;8731;50.364;8.958;2023-02-18T09:30:46;100574.19;;;11.26;82.42
17230;BME280;8731;50.364;8.958;2023-02-18T09:35:09;100578.38;;;11.26;82.29
17230;BME280;8731;50.364;8.958;2023-02-18T09:39:32;100579.88;;;11.32;82.86
17230;BME280;8731;50.364;8.958;2023-02-18T09:43:56;100590.97;;;11.33;82.39
17230;BME280;8731;50.364;8.958;2023-02-18T09:48:24;100591.72;;;11.32;81.84
17230;BME280;8731;50.364;8.958;2023-02-18T09:52:49;100585.84;;;11.33;81.81
17230;BME280;8731;50.364;8.958;2023-02-18T09:57:21;100588.25;;;11.31;82.10
17230;BME280;8731;50.364;8.958;2023-02-18T10:01:48;100582.13;;;11.29;81.57
17230;BME280;8731;50.364;8.958;2023-02-18T10:06:17;100583.78;;;11.37;81.34
17230;BME280;8731;50.364;8.958;2023-02-18T10:10:44;100586.75;;;11.33;81.41
17230;BME280;8731;50.364;8.958;2023-02-18T10:15:19;100572.97;;;11.40;81.53
17230;BME280;8731;50.364;8.958;2023-02-18T10:19:44;100575.06;;;11.35;80.86
17230;BME280;8731;50.364;8.958;2023-02-18T10:24:16;100567.41;;;11.44;81.52
17230;BME280;8731;50.364;8.958;2023-02-18T10:28:47;100551.06;;;11.42;80.24
17230;BME280;8731;50.364;8.958;2023-02-18T10:33:26;100563.91;;;11.52;80.95
17230;BME280;8731;50.364;8.958;2023-02-18T10:38:01;100552.53;;;11.49;80.68
17230;BME280;8731;50.364;8.958;2023-02-18T10:42:35;100545.94;;;11.51;81.17
17230;BME280;8731;50.364;8.958;2023-02-18T10:47:12;100550.13;;;11.50;80.27
17230;BME280;8731;50.364;8.958;2023-02-18T10:51:46;100548.28;;;11.58;79.96
17230;BME280;8731;50.364;8.958;2023-02-18T10:56:31;100539.31;;;11.61;79.57
17230;BME280;8731;50.364;8.958;2023-02-18T11:00:56;100544.69;;;11.64;79.45
17230;BME280;8731;50.364;8.958;2023-02-18T11:05:22;100555.38;;;11.60;78.71
17230;BME280;8731;50.364;8.958;2023-02-18T11:09:49;100550.84;;;11.66;78.53
17230;BME280;8731;50.364;8.958;2023-02-18T11:14:32;100540.28;;;11.81;78.68
17230;BME280;8731;50.364;8.958;2023-02-18T11:19:00;100551.25;;;11.71;78.41
17230;BME280;8731;50.364;8.958;2023-02-18T11:23:23;100559.94;;;11.73;79.75
17230;BME280;8731;50.364;8.958;2023-02-18T11:27:50;100541.66;;;11.68;80.54
17230;BME280;8731;50.364;8.958;2023-02-18T11:32:15;100534.31;;;11.72;81.78
17230;BME280;8731;50.364;8.958;2023-02-18T11:36:37;100520.69;;;11.62;81.08
17230;BME280;8731;50.364;8.958;2023-02-18T11:41:03;100514.19;;;11.75;81.85
17230;BME280;8731;50.364;8.958;2023-02-18T11:45:31;100516.44;;;11.72;81.39
17230;BME280;8731;50.364;8.958;2023-02-18T11:50:12;100502.66;;;11.69;82.02
17230;BME280;8731;50.364;8.958;2023-02-18T11:54:36;100494.31;;;11.62;82.07
17230;BME280;8731;50.364;8.958;2023-02-18T11:58:59;100461.91;;;11.61;81.62
17230;BME280;8731;50.364;8.958;2023-02-18T12:03:29;100457.69;;;11.61;81.26
17230;BME280;8731;50.364;8.958;2023-02-18T12:08:00;100459.50;;;11.62;80.61
17230;BME280;8731;50.364;8.958;2023-02-18T12:12:37;100464.72;;;11.64;80.46
17230;BME280;8731;50.364;8.958;2023-02-18T12:17:24;100470.41;;;11.70;80.14
17230;BME280;8731;50.364;8.958;2023-02-18T12:22:04;100481.34;;;11.69;79.19
17230;BME280;8731;50.364;8.958;2023-02-18T12:26:43;100479.41;;;11.66;79.47
17230;BME280;8731;50.364;8.958;2023-02-18T12:31:33;100471.16;;;11.69;79.17
17230;BME280;8731;50.364;8.958;2023-02-18T12:36:11;100463.22;;;11.66;79.55
17230;BME280;8731;50.364;8.958;2023-02-18T12:40:50;100469.31;;;11.77;79.63
17230;BME280;8731;50.364;8.958;2023-02-18T12:45:43;100453.72;;;11.74;81.36
17230;BME280;8731;50.364;8.958;2023-02-18T12:50:36;100455.84;;;11.69;81.49
17230;BME280;8731;50.364;8.958;2023-02-18T12:55:29;100464.19;;;11.77;81.66
17230;BME280;8731;50.364;8.958;2023-02-18T13:00:41;100463.91;;;11.74;81.89
17230;BME280;8731;50.364;8.958;2023-02-18T13:05:25;100462.72;;;11.79;81.63
17230;BME280;8731;50.364;8.958;2023-02-18T13:10:16;100481.00;;;11.75;82.23
17230;BME280;8731;50.364;8.958;2023-02-18T13:14:52;100477.38;;;11.90;82.41
17230;BME280;8731;50.364;8.958;2023-02-18T13:19:23;100471.78;;;11.94;83.06
17230;BME280;8731;50.364;8.958;2023-02-18T13:23:54;100465.84;;;11.85;82.72
17230;BME280;8731;50.364;8.958;2023-02-18T13:28:22;100477.38;;;11.90;82.95
17230;BME280;8731;50.364;8.958;2023-02-18T13:32:59;100468.47;;;11.95;82.85
17230;BME280;8731;50.364;8.958;2023-02-18T13:37:33;100458.19;;;11.85;83.35
17230;BME280;8731;50.364;8.958;2023-02-18T13:42:23;100469.09;;;11.92;83.26
17230;BME280;8731;50.364;8.958;2023-02-18T13:46:53;100460.88;;;11.78;83.65
17230;BME280;8731;50.364;8.958;2023-02-18T13:51:27;100453.09;;;11.85;83.48
17230;BME280;8731;50.364;8.958;2023-02-18T13:55:59;100453.09;;;11.85;83.87
17230;BME280;8731;50.364;8.958;2023-02-18T14:00:33;100452.97;;;11.83;84.99
17230;BME280;8731;50.364;8.958;2023-02-18T14:05:14;100447.84;;;11.75;84.93
17230;BME280;8731;50.364;8.958;2023-02-18T14:09:41;100451.31;;;11.84;85.54
17230;BME280;8731;50.364;8.958;2023-02-18T14:14:32;100453.41;;;11.79;85.63
17230;BME280;8731;50.364;8.958;2023-02-18T14:19:00;100448.56;;;11.91;85.57
17230;BME280;8731;50.364;8.958;2023-02-18T14:23:40;100445.31;;;11.83;85.88
17230;BME280;8731;50.364;8.958;2023-02-18T14:28:35;100445.03;;;11.72;86.29
17230;BME280;8731;50.364;8.958;2023-02-18T14:33:01;100445.75;;;11.79;86.32
17230;BME280;8731;50.364;8.958;2023-02-18T14:37:38;100454.56;;;11.91;85.87
17230;BME280;8731;50.364;8.958;2023-02-18T14:42:33;100456.97;;;11.90;85.48
17230;BME280;8731;50.364;8.958;2023-02-18T14:47:16;100454.81;;;11.94;85.40
17230;BME280;8731;50.364;8.958;2023-02-18T14:51:48;100453.09;;;11.85;86.56
17230;BME280;8731;50.364;8.958;2023-02-18T14:56:15;100457.72;;;11.89;86.45
17230;BME280;8731;50.364;8.958;2023-02-18T15:00:42;100454.75;;;11.84;86.23
17230;BME280;8731;50.364;8.958;2023-02-18T15:05:12;100455.19;;;11.80;86.52
17230;BME280;8731;50.364;8.958;2023-02-18T15:09:44;100463.88;;;11.82;86.83
17230;BME280;8731;50.364;8.958;2023-02-18T15:14:09;100449.50;;;11.74;87.05
17230;BME280;8731;50.364;8.958;2023-02-18T15:18:40;100453.41;;;11.79;87.36
17230;BME280;8731;50.364;8.958;2023-02-18T15:23:04;100449.22;;;11.71;86.96
17230;BME280;8731;50.364;8.958;2023-02-18T15:27:30;100463.00;;;11.82;87.25
17230;BME280;8731;50.364;8.958;2023-02-18T15:31:55;100456.53;;;11.77;87.09
17230;BME280;8731;50.364;8.958;2023-02-18T15:36:20;100463.00;;;11.82;86.81
17230;BME280;8731;50.364;8.958;2023-02-18T15:40:43;100461.19;;;11.81;86.73
17230;BME280;8731;50.364;8.958;2023-02-18T15:45:16;100463.59;;;11.79;87.19
17230;BME280;8731;50.364;8.958;2023-02-18T15:49:44;100457.31;;;11.76;86.42
17230;BME280;8731;50.364;8.958;2023-02-18T15:54:13;100461.34;;;11.82;86.97
17230;BME280;8731;50.364;8.958;2023-02-18T15:58:38;100468.25;;;11.75;86.54
17230;BME280;8731;50.364;8.958;2023-02-18T16:03:07;100463.59;;;11.79;85.91
17230;BME280;8731;50.364;8.958;2023-02-18T16:07:47;100465.72;;;11.75;86.02
17230;BME280;8731;50.364;8.958;2023-02-18T16:12:21;100458.06;;;11.75;86.30
17230;BME280;8731;50.364;8.958;2023-02-18T16:16:59;100470.81;;;11.83;86.39
17230;BME280;8731;50.364;8.958;2023-02-18T16:21:36;100468.19;;;11.64;86.17
17230;BME280;8731;50.364;8.958;2023-02-18T16:26:21;100460.06;;;11.68;85.65
17230;BME280;8731;50.364;8.958;2023-02-18T16:30:47;100467.91;;;11.61;85.41
17230;BME280;8731;50.364;8.958;2023-02-18T16:35:10;100473.97;;;11.72;85.58
17230;BME280;8731;50.364;8.958;2023-02-18T16:39:34;100476.13;;;11.67;85.30
17230;BME280;8731;50.364;8.958;2023-02-18T16:43:57;100473.84;;;11.71;86.11
17230;BME280;8731;50.364;8.958;2023-02-18T16:48:23;100478.81;;;11.69;85.71
17230;BME280;8731;50.364;8.958;2023-02-18T16:52:49;100479.09;;;11.72;85.57
17230;BME280;8731;50.364;8.958;2023-02-18T16:57:13;100480.31;;;11.67;85.45
17230;BME280;8731;50.364;8.958;2023-02-18T17:01:37;100483.47;;;11.64;85.32
17230;BME280;8731;50.364;8.958;2023-02-18T17:06:04;100481.22;;;11.59;85.38
17230;BME280;8731;50.364;8.958;2023-02-18T17:10:26;100483.78;;;11.59;85.78
17230;BME280;8731;50.364;8.958;2023-02-18T17:14:50;100478.66;;;11.67;85.09
17230;BME280;8731;50.364;8.958;2023-02-18T17:19:13;100478.13;;;11.53;85.24
17230;BME280;8731;50.364;8.958;2023-02-18T17:23:36;100486.19;;;11.57;84.74
17230;BME280;8731;50.364;8.958;2023-02-18T17:27:58;100491.44;;;11.59;84.43
17230;BME280;8731;50.364;8.958;2023-02-18T17:32:23;100504.81;;;11.56;84.46
17230;BME280;8731;50.364;8.958;2023-02-18T17:36:45;100498.03;;;11.65;84.84
17230;BME280;8731;50.364;8.958;2023-02-18T17:41:09;100497.00;;;11.55;84.43
17230;BME280;8731;50.364;8.958;2023-02-18T17:45:44;100505.13;;;11.59;85.11
17230;BME280;8731;50.364;8.958;2023-02-18T17:50:09;100507.53;;;11.49;85.45
17230;BME280;8731;50.364;8.958;2023-02-18T17:54:32;100509.94;;;11.48;85.07
17230;BME280;8731;50.364;8.958;2023-02-18T17:58:54;100519.53;;;11.50;85.07
17230;BME280;8731;50.364;8.958;2023-02-18T18:03:18;100520.44;;;11.51;85.46
17230;BME280;8731;50.364;8.958;2023-02-18T18:07:40;100520.63;;;11.44;85.41
17230;BME280;8731;50.364;8.958;2023-02-18T18:12:03;100517.13;;;11.52;85.26
17230;BME280;8731;50.364;8.958;2023-02-18T18:16:26;100520.00;;;11.46;85.34
17230;BME280;8731;50.364;8.958;2023-02-18T18:20:52;100526.63;;;11.44;85.11
17230;BME280;8731;50.364;8.958;2023-02-18T18:25:21;100528.25;;;11.44;85.68
17230;BME280;8731;50.364;8.958;2023-02-18T18:29:45;100529.78;;;11.42;85.92
17230;BME280;8731;50.364;8.958;2023-02-18T18:34:08;100522.88;;;11.32;86.88
17230;BME280;8731;50.364;8.958;2023-02-18T18:38:32;100522.25;;;11.43;86.74
17230;BME280;8731;50.364;8.958;2023-02-18T18:42:55;100525.91;;;11.36;86.94
17230;BME280;8731;50.364;8.958;2023-02-18T18:47:18;100533.53;;;11.28;87.89
17230;BME280;8731;50.364;8.958;2023-02-18T18:51:40;100531.00;;;11.28;88.04
17230;BME280;8731;50.364;8.958;2023-02-18T18:56:05;100537.00;;;11.37;88.12
17230;BME280;8731;50.364;8.958;2023-02-18T19:00:31;100533.72;;;11.21;89.12
17230;BME280;8731;50.364;8.958;2023-02-18T19:04:54;100539.75;;;11.13;89.18
17230;BME280;8731;50.364;8.958;2023-02-18T19:09:16;100533.00;;;11.13;90.08
17230;BME280;8731;50.364;8.958;2023-02-18T19:13:40;100529.22;;;11.10;91.04
17230;BME280;8731;50.364;8.958;2023-02-18T19:18:04;100533.56;;;11.11;90.90
17230;BME280;8731;50.364;8.958;2023-02-18T19:22:27;100533.16;;;10.97;91.91
17230;BME280;8731;50.364;8.958;2023-02-18T19:26:49;100536.28;;;11.03;91.89
17230;BME280;8731;50.364;8.958;2023-02-18T19:31:13;100531.84;;;10.92;92.74
17230;BME280;8731;50.364;8.958;2023-02-18T19:35:37;100527.75;;;10.86;93.58
17230;BME280;8731;50.364;8.958;2023-02-18T19:40:01;100517.13;;;10.81;93.94
17230;BME280;8731;50.364;8.958;2023-02-18T19:44:24;100518.50;;;10.77;94.50
17230;BME280;8731;50.364;8.958;2023-02-18T19:48:49;100525.69;;;10.64;95.00
17230;BME280;8731;50.364;8.958;2023-02-18T19:53:12;100523.59;;;10.69;94.23
17230;BME280;8731;50.364;8.958;2023-02-18T19:57:34;100525.69;;;10.73;93.57
17230;BME280;8731;50.364;8.958;2023-02-18T20:01:56;100516.88;;;10.69;94.04
17230;BME280;8731;50.364;8.958;2023-02-18T20:06:20;100519.69;;;10.55;94.62
17230;BME280;8731;50.364;8.958;2023-02-18T20:10:42;100506.66;;;10.61;94.41
17230;BME280;8731;50.364;8.958;2023-02-18T20:15:05;100499.34;;;10.55;95.43
17230;BME280;8731;50.364;8.958;2023-02-18T20:19:28;100504.41;;;10.55;96.41
17230;BME280;8731;50.364;8.958;2023-02-18T20:23:53;100505.00;;;10.61;95.90
17230;BME280;8731;50.364;8.958;2023-02-18T20:28:16;100505.03;;;10.53;95.97
17230;BME280;8731;50.364;8.958;2023-02-18T20:32:38;100508.63;;;10.46;96.88
17230;BME280;8731;50.364;8.958;2023-02-18T20:37:00;100509.97;;;10.42;96.50
17230;BME280;8731;50.364;8.958;2023-02-18T20:41:24;100500.84;;;10.44;96.96
17230;BME280;8731;50.364;8.958;2023-02-18T20:45:46;100512.03;;;10.38;97.59
17230;BME280;8731;50.364;8.958;2023-02-18T20:50:08;100503.50;;;10.37;98.04
17230;BME280;8731;50.364;8.958;2023-02-18T20:54:31;100504.88;;;10.42;98.07
17230;BME280;8731;50.364;8.958;2023-02-18T20:58:55;100505.63;;;10.33;97.90
17230;BME280;8731;50.364;8.958;2023-02-18T21:03:17;100512.53;;;10.42;97.71
17230;BME280;8731;50.364;8.958;2023-02-18T21:07:39;100500.84;;;10.44;96.91
17230;BME280;8731;50.364;8.958;2023-02-18T21:12:02;100505.31;;;10.38;96.83
17230;BME280;8731;50.364;8.958;2023-02-18T21:16:27;100500.97;;;10.37;97.12
17230;BME280;8731;50.364;8.958;2023-02-18T21:20:51;100492.28;;;10.35;96.87
17230;BME280;8731;50.364;8.958;2023-02-18T21:25:13;100499.47;;;10.39;97.71
17230;BME280;8731;50.364;8.958;2023-02-18T21:29:36;100503.38;;;10.36;97.80
17230;BME280;8731;50.364;8.958;2023-02-18T21:33:59;100500.22;;;10.38;97.64
17230;BME280;8731;50.364;8.958;2023-02-18T21:38:22;100490.19;;;10.40;98.23
17230;BME280;8731;50.364;8.958;2023-02-18T21:42:45;100484.66;;;10.35;97.78
17230;BME280;8731;50.364;8.958;2023-02-18T21:47:07;100480.16;;;10.33;97.19
17230;BME280;8731;50.364;8.958;2023-02-18T21:51:33;100475.38;;;10.36;97.33
17230;BME280;8731;50.364;8.958;2023-02-18T21:56:14;100483.28;;;10.39;96.58
17230;BME280;8731;50.364;8.958;2023-02-18T22:00:36;100469.81;;;10.40;96.09
17230;BME280;8731;50.364;8.958;2023-02-18T22:04:58;100461.63;;;10.42;96.21
17230;BME280;8731;50.364;8.958;2023-02-18T22:09:23;100445.00;;;10.46;95.83
17230;BME280;8731;50.364;8.958;2023-02-18T22:13:45;100441.53;;;10.45;95.29
17230;BME280;8731;50.364;8.958;2023-02-18T22:18:08;100435.25;;;10.51;94.53
17230;BME280;8731;50.364;8.958;2023-02-18T22:22:30;100436.59;;;10.56;94.45
17230;BME280;8731;50.364;8.958;2023-02-18T22:26:54;100435.25;;;10.51;94.11
17230;BME280;8731;50.364;8.958;2023-02-18T22:31:17;100439.41;;;10.59;93.45
17230;BME280;8731;50.364;8.958;2023-02-18T22:35:39;100423.09;;;10.57;93.42
17230;BME280;8731;50.364;8.958;2023-02-18T22:40:02;100426.09;;;10.53;92.94
17230;BME280;8731;50.364;8.958;2023-02-18T22:44:26;100428.03;;;10.55;92.81
17230;BME280;8731;50.364;8.958;2023-02-18T22:48:48;100438.66;;;10.60;92.85
17230;BME280;8731;50.364;8.958;2023-02-18T22:53:10;100428.34;;;10.50;92.78
17230;BME280;8731;50.364;8.958;2023-02-18T22:57:33;100426.84;;;10.52;92.57
17230;BME280;8731;50.364;8.958;2023-02-18T23:01:56;100426.09;;;10.53;93.37
17230;BME280;8731;50.364;8.958;2023-02-18T23:06:20;100425.34;;;10.54;93.30
17230;BME280;8731;50.364;8.958;2023-02-18T23:10:42;100428.81;;;10.45;93.05
17230;BME280;8731;50.364;8.958;2023-02-18T23:15:05;100423.41;;;10.51;93.19
17230;BME280;8731;50.364;8.958;2023-02-18T23:19:30;100416.22;;;10.38;93.54
17230;BME280;8731;50.364;8.958;2023-02-18T23:23:54;100406.94;;;10.48;93.49
17230;BME280;8731;50.364;8.958;2023-02-18T23:28:17;100397.66;;;10.48;92.94
17230;BME280;8731;50.364;8.958;2023-02-18T23:32:39;100403.81;;;10.50;93.51
17230;BME280;8731;50.364;8.958;2023-02-18T23:37:03;100403.81;;;10.50;93.23
17230;BME280;8731;50.364;8.958;2023-02-18T23:41:26;100400.66;;;10.53;93.42